createdAt,value
2023-02-22T00:02:26.289Z,3.20
2023-02-22T00:04:55.079Z,3.20
2023-02-22T00:07:24.802Z,3.20
2023-02-22T00:09:52.694Z,3.20
2023-02-22T00:12:21.662Z,3.20
2023-02-22T00:14:49.632Z,3.20
2023-02-22T00:17:17.519Z,3.20
2023-02-22T00:19:45.483Z,3.20
2023-02-22T00:22:13.347Z,3.10
2023-02-22T00:24:41.235Z,3.10
2023-02-22T00:27:09.176Z,3.10
2023-02-22T00:29:37.524Z,3.00
2023-02-22T00:32:07.105Z,3.00
2023-02-22T00:34:35.048Z,3.00
2023-02-22T00:37:05.244Z,3.00
2023-02-22T00:39:33.260Z,3.00
2023-02-22T00:42:01.163Z,3.00
2023-02-22T00:44:30.506Z,3.00
2023-02-22T00:46:58.477Z,2.90
2023-02-22T00:49:27.168Z,2.90
2023-02-22T00:51:55.861Z,2.80
2023-02-22T00:54:23.814Z,2.80
2023-02-22T00:56:51.783Z,2.70
2023-02-22T00:59:19.943Z,2.60
2023-02-22T01:01:47.856Z,2.60
2023-02-22T01:04:15.859Z,2.60
2023-02-22T01:06:44.248Z,2.50
2023-02-22T01:09:12.213Z,2.50
2023-02-22T01:11:43.158Z,2.50
2023-02-22T01:14:14.563Z,2.60
2023-02-22T01:16:42.988Z,2.70
2023-02-22T01:19:10.972Z,2.70
2023-02-22T01:21:40.615Z,2.70
2023-02-22T01:24:08.794Z,2.60
2023-02-22T01:26:36.812Z,2.50
2023-02-22T01:29:04.706Z,2.50
2023-02-22T01:31:32.649Z,2.50
2023-02-22T01:34:00.687Z,2.50
2023-02-22T01:36:28.575Z,2.50
2023-02-22T01:38:56.499Z,2.60
2023-02-22T01:41:24.407Z,2.60
2023-02-22T01:43:52.279Z,2.50
2023-02-22T01:46:28.357Z,2.40
2023-02-22T01:49:02.612Z,2.40
2023-02-22T01:51:38.889Z,2.30
2023-02-22T01:54:15.229Z,2.30
2023-02-22T01:57:07.711Z,2.30
2023-02-22T01:59:43.915Z,2.20
2023-02-22T02:02:13.527Z,2.20
2023-02-22T02:04:43.872Z,2.20
2023-02-22T02:07:15.385Z,2.20
2023-02-22T02:10:15.339Z,2.30
2023-02-22T02:12:49.907Z,2.30
2023-02-22T02:15:36.027Z,2.40
2023-02-22T02:18:08.172Z,2.30
2023-02-22T02:21:28.826Z,2.20
2023-02-22T02:24:30.396Z,2.20
2023-02-22T02:27:16.535Z,2.10
2023-02-22T02:29:59.497Z,2.00
2023-02-22T02:32:37.194Z,2.00
2023-02-22T02:35:26.879Z,2.00
2023-02-22T02:38:01.148Z,2.00
2023-02-22T02:40:48.457Z,2.00
2023-02-22T02:43:19.427Z,2.00
2023-02-22T02:46:16.623Z,1.90
2023-02-22T02:49:09.728Z,2.00
2023-02-22T02:51:42.392Z,2.00
2023-02-22T02:54:12.626Z,1.90
2023-02-22T02:56:40.556Z,1.90
2023-02-22T02:59:31.949Z,2.00
2023-02-22T03:02:35.704Z,2.10
2023-02-22T03:05:12.605Z,2.00
2023-02-22T03:07:53.282Z,2.00
2023-02-22T03:10:27.052Z,2.00
2023-02-22T03:13:15.036Z,2.00
2023-02-22T03:16:14.663Z,2.10
2023-02-22T03:18:51.538Z,2.20
2023-02-22T03:21:34.710Z,2.20
2023-02-22T03:24:19.923Z,2.20
2023-02-22T03:26:58.032Z,2.30
2023-02-22T03:29:28.929Z,2.30
2023-02-22T03:32:02.378Z,2.30
2023-02-22T03:34:42.785Z,2.10
2023-02-22T03:37:18.947Z,1.90
2023-02-22T03:39:50.797Z,1.80
2023-02-22T03:42:27.100Z,1.80
2023-02-22T03:44:59.571Z,1.80
2023-02-22T03:47:38.806Z,1.70
2023-02-22T03:50:18.693Z,1.70
2023-02-22T03:52:48.560Z,1.60
2023-02-22T03:55:24.884Z,1.60
2023-02-22T03:58:04.338Z,1.60
2023-02-22T04:00:35.776Z,1.50
2023-02-22T04:03:05.735Z,1.50
2023-02-22T04:05:33.804Z,1.60
2023-02-22T04:08:02.785Z,1.60
2023-02-22T04:10:34.701Z,1.60
2023-02-22T04:13:03.404Z,1.50
2023-02-22T04:15:34.400Z,1.50
2023-02-22T04:18:06.827Z,1.40
2023-02-22T04:20:35.962Z,1.40
2023-02-22T04:23:12.888Z,1.40
2023-02-22T04:25:42.626Z,1.50
2023-02-22T04:28:15.032Z,1.50
2023-02-22T04:30:52.168Z,1.50
2023-02-22T04:33:21.920Z,1.60
2023-02-22T04:35:49.920Z,1.60
2023-02-22T04:38:17.852Z,1.60
2023-02-22T04:40:46.199Z,1.60
2023-02-22T04:43:14.800Z,1.60
2023-02-22T04:45:42.836Z,1.70
2023-02-22T04:48:11.075Z,1.80
2023-02-22T04:50:39.239Z,1.80
2023-02-22T04:53:07.208Z,1.80
2023-02-22T04:55:38.088Z,1.60
2023-02-22T04:58:08.130Z,1.60
2023-02-22T05:00:38.340Z,1.60
2023-02-22T05:03:07.160Z,1.70
2023-02-22T05:05:35.089Z,1.80
2023-02-22T05:08:03.145Z,1.80
2023-02-22T05:10:31.018Z,1.50
2023-02-22T05:13:03.965Z,1.40
2023-02-22T05:15:33.722Z,1.20
2023-02-22T05:18:01.818Z,1.20
2023-02-22T05:20:32.393Z,1.20
2023-02-22T05:23:01.945Z,1.20
2023-02-22T05:25:30.487Z,1.20
2023-02-22T05:28:04.649Z,1.10
2023-02-22T05:30:35.693Z,1.10
2023-02-22T05:33:03.949Z,1.00
2023-02-22T05:35:31.869Z,1.00
2023-02-22T05:38:02.953Z,1.00
2023-02-22T05:40:32.137Z,1.00
2023-02-22T05:43:00.747Z,1.00
2023-02-22T05:45:29.632Z,1.10
2023-02-22T05:47:57.659Z,1.10
2023-02-22T05:50:26.576Z,1.20
2023-02-22T05:52:54.745Z,1.20
2023-02-22T05:55:24.749Z,1.30
2023-02-22T05:57:53.812Z,1.10
2023-02-22T06:00:28.909Z,1.10
2023-02-22T06:03:06.284Z,1.00
2023-02-22T06:05:34.767Z,1.00
2023-02-22T06:08:03.837Z,1.10
2023-02-22T06:10:40.994Z,1.10
2023-02-22T06:13:08.979Z,1.00
2023-02-22T06:15:36.901Z,1.10
2023-02-22T06:18:04.962Z,1.20
2023-02-22T06:20:34.410Z,1.20
2023-02-22T06:23:02.686Z,1.20
2023-02-22T06:25:32.797Z,1.20
2023-02-22T06:28:02.384Z,1.20
2023-02-22T06:30:31.822Z,1.20
2023-02-22T06:32:59.811Z,1.20
2023-02-22T06:35:27.724Z,1.20
2023-02-22T06:37:55.674Z,1.20
2023-02-22T06:40:23.718Z,1.30
2023-02-22T06:42:51.900Z,1.30
2023-02-22T06:45:20.156Z,1.30
2023-02-22T06:47:48.461Z,1.40
2023-02-22T06:50:31.077Z,1.40
2023-02-22T06:53:01.609Z,1.50
2023-02-22T06:55:31.429Z,1.60
2023-02-22T06:58:00.145Z,1.70
2023-02-22T07:00:30.201Z,1.90
2023-02-22T07:02:58.957Z,2.00
2023-02-22T07:05:28.235Z,2.10
2023-02-22T07:08:02.352Z,2.30
2023-02-22T07:10:32.276Z,2.40
2023-02-22T07:13:02.854Z,2.50
2023-02-22T07:15:36.750Z,2.70
2023-02-22T07:18:05.727Z,2.80
2023-02-22T07:20:36.522Z,2.90
2023-02-22T07:23:05.490Z,3.00
2023-02-22T07:25:33.409Z,3.10
2023-02-22T07:28:01.578Z,3.10
2023-02-22T07:30:35.360Z,3.20
2023-02-22T07:33:06.502Z,3.30
2023-02-22T07:35:37.822Z,3.40
2023-02-22T07:38:09.874Z,3.30
2023-02-22T07:40:39.196Z,3.40
2023-02-22T07:43:27.519Z,3.50
2023-02-22T07:45:57.888Z,3.60
2023-02-22T07:48:27.813Z,3.70
2023-02-22T07:50:55.809Z,4.00
2023-02-22T07:53:28.731Z,4.10
2023-02-22T07:56:05.472Z,4.30
2023-02-22T07:58:34.301Z,4.40
2023-02-22T08:01:05.459Z,4.40
2023-02-22T08:03:37.554Z,4.60
2023-02-22T08:06:08.453Z,4.90
2023-02-22T08:08:37.580Z,5.20
2023-02-22T08:11:06.314Z,5.80
2023-02-22T08:13:39.234Z,6.30
2023-02-22T08:16:07.485Z,6.90
2023-02-22T08:18:35.691Z,7.40
2023-02-22T08:21:03.581Z,7.70
2023-02-22T08:23:32.772Z,7.90
2023-02-22T08:26:11.877Z,8.20
2023-02-22T08:28:39.916Z,8.50
2023-02-22T08:31:09.943Z,8.70
2023-02-22T08:33:37.997Z,8.80
2023-02-22T08:36:06.373Z,8.70
2023-02-22T08:38:35.096Z,8.80
2023-02-22T08:41:03.195Z,9.00
2023-02-22T08:43:31.265Z,9.20
2023-02-22T08:46:02.323Z,9.30
2023-02-22T08:48:30.217Z,9.80
2023-02-22T08:50:58.175Z,10.30
2023-02-22T08:53:29.199Z,10.80
2023-02-22T08:55:57.402Z,11.10
2023-02-22T08:58:30.479Z,11.50
2023-02-22T09:00:58.997Z,12.10
2023-02-22T09:03:27.243Z,12.60
2023-02-22T09:05:55.924Z,12.90
2023-02-22T09:08:24.385Z,12.80
2023-02-22T09:10:52.722Z,12.80
2023-02-22T09:13:20.670Z,13.40
2023-02-22T09:15:48.998Z,13.80
2023-02-22T09:18:19.155Z,14.00
2023-02-22T09:20:47.206Z,14.10
2023-02-22T09:23:15.538Z,13.90
2023-02-22T09:25:43.619Z,14.00
2023-02-22T09:28:11.873Z,14.40
2023-02-22T09:30:40.203Z,14.70
2023-02-22T09:33:11.974Z,13.80
2023-02-22T09:35:47.263Z,13.30
2023-02-22T09:38:24.243Z,13.40
2023-02-22T09:40:58.072Z,13.90
2023-02-22T09:43:41.632Z,14.40
2023-02-22T09:46:20.991Z,14.50
2023-02-22T09:49:10.584Z,14.40
2023-02-22T09:51:53.762Z,14.80
2023-02-22T09:54:49.305Z,14.90
2023-02-22T09:57:30.652Z,14.80
2023-02-22T10:00:14.774Z,15.10
2023-02-22T10:03:09.162Z,15.60
2023-02-22T10:05:57.890Z,15.80
2023-02-22T10:08:35.659Z,16.00
2023-02-22T10:11:32.666Z,15.80
2023-02-22T10:14:10.465Z,15.30
2023-02-22T10:17:01.905Z,16.10
2023-02-22T10:19:46.499Z,16.70
2023-02-22T10:22:29.715Z,16.80
2023-02-22T10:25:03.417Z,16.90
2023-02-22T10:27:34.125Z,16.90
2023-02-22T10:30:25.864Z,16.80
2023-02-22T10:33:13.526Z,16.00
2023-02-22T10:35:42.381Z,15.90
2023-02-22T10:38:17.670Z,15.80
2023-02-22T10:41:02.034Z,15.90
2023-02-22T10:43:30.468Z,16.40
2023-02-22T10:46:03.893Z,17.00
2023-02-22T10:48:38.604Z,16.80
2023-02-22T10:51:13.125Z,16.90
2023-02-22T10:53:41.194Z,17.40
2023-02-22T10:56:24.599Z,17.10
2023-02-22T10:59:03.320Z,17.30
2023-02-22T11:01:34.024Z,17.20
2023-02-22T11:04:16.623Z,17.20
2023-02-22T11:06:47.617Z,18.20
2023-02-22T11:09:25.031Z,18.60
2023-02-22T11:12:17.650Z,19.20
2023-02-22T11:14:45.644Z,19.80
2023-02-22T11:17:20.391Z,20.20
2023-02-22T11:19:52.247Z,20.00
2023-02-22T11:22:23.083Z,19.20
2023-02-22T11:27:44.929Z,19.00
2023-02-22T11:30:22.900Z,18.80
2023-02-22T11:33:02.000Z,18.50
2023-02-22T11:35:29.883Z,18.40
2023-02-22T11:38:12.828Z,18.40
2023-02-22T11:40:44.077Z,18.50
2023-02-22T11:43:20.806Z,18.30
2023-02-22T11:46:02.315Z,18.50
2023-02-22T11:48:33.451Z,18.30
2023-02-22T11:51:20.360Z,18.40
2023-02-22T11:54:06.727Z,18.60
2023-02-22T11:56:43.870Z,18.30
2023-02-22T11:59:22.225Z,18.30
2023-02-22T12:02:19.575Z,18.40
2023-02-22T12:04:59.861Z,18.50
2023-02-22T12:07:51.579Z,18.30
2023-02-22T12:10:49.513Z,18.80
2023-02-22T12:13:45.424Z,19.50
2023-02-22T12:16:47.483Z,19.80
2023-02-22T12:19:33.649Z,19.60
2023-02-22T12:22:22.436Z,18.50
2023-02-22T12:25:09.771Z,18.00
2023-02-22T12:27:44.495Z,18.50
2023-02-22T12:30:41.462Z,19.30
2023-02-22T12:33:20.460Z,19.90
2023-02-22T12:35:55.672Z,19.80
2023-02-22T12:38:45.440Z,19.70
2023-02-22T12:41:39.381Z,19.40
2023-02-22T12:44:13.715Z,19.00
2023-02-22T12:46:51.787Z,18.40
2023-02-22T12:49:35.658Z,18.10
2023-02-22T12:52:26.700Z,17.90
2023-02-22T12:54:57.796Z,17.50
2023-02-22T12:57:48.359Z,17.60
2023-02-22T13:00:31.887Z,17.80
2023-02-22T13:03:08.047Z,17.90
2023-02-22T13:05:40.306Z,18.30
2023-02-22T13:08:27.038Z,18.40
2023-02-22T13:11:12.391Z,18.70
2023-02-22T13:14:15.490Z,18.50
2023-02-22T13:17:05.431Z,18.30
2023-02-22T13:20:00.208Z,17.90
2023-02-22T13:22:51.317Z,18.10
2023-02-22T13:25:29.743Z,18.70
2023-02-22T13:28:15.149Z,19.30
2023-02-22T13:30:46.978Z,19.40
2023-02-22T13:33:15.517Z,19.40
2023-02-22T13:36:02.026Z,19.60
2023-02-22T13:38:38.843Z,19.70
2023-02-22T13:41:18.245Z,19.70
2023-02-22T13:44:14.691Z,20.00
2023-02-22T13:46:48.817Z,20.30
2023-02-22T13:49:41.137Z,20.90
2023-02-22T13:52:23.621Z,21.30
2023-02-22T13:55:12.022Z,21.60
2023-02-22T13:57:49.237Z,21.50
2023-02-22T14:00:17.436Z,21.20
2023-02-22T14:03:10.151Z,21.40
2023-02-22T14:05:52.359Z,22.00
2023-02-22T14:08:22.842Z,22.30
2023-02-22T14:11:01.768Z,22.70
2023-02-22T14:13:49.012Z,23.00
2023-02-22T14:16:20.754Z,23.20
2023-02-22T14:18:51.856Z,23.20
2023-02-22T14:21:21.587Z,23.00
2023-02-22T14:23:54.977Z,23.10
2023-02-22T14:26:39.718Z,22.20
2023-02-22T14:29:20.294Z,21.70
2023-02-22T14:31:48.427Z,21.50
2023-02-22T14:34:45.973Z,20.90
2023-02-22T14:37:15.930Z,19.80
2023-02-22T14:39:51.390Z,19.30
2023-02-22T14:42:45.408Z,18.70
2023-02-22T14:45:21.208Z,18.50
2023-02-22T14:47:52.121Z,18.50
2023-02-22T14:50:42.855Z,18.30
2023-02-22T14:53:32.117Z,18.10
2023-02-22T14:56:04.947Z,17.80
2023-02-22T14:58:48.102Z,17.40
2023-02-22T15:01:47.400Z,17.00
2023-02-22T15:04:23.555Z,16.90
2023-02-22T15:06:51.725Z,16.80
2023-02-22T15:09:29.201Z,16.60
2023-02-22T15:12:31.833Z,16.50
2023-02-22T15:15:15.051Z,16.30
2023-02-22T15:17:47.189Z,16.10
2023-02-22T15:20:18.308Z,16.00
2023-02-22T15:22:47.546Z,16.00
2023-02-22T15:25:15.662Z,15.80
2023-02-22T15:27:48.544Z,15.70
2023-02-22T15:30:21.851Z,15.70
2023-02-22T15:33:03.041Z,15.70
2023-02-22T15:35:32.867Z,15.70
2023-02-22T15:38:12.700Z,15.60
2023-02-22T15:40:44.082Z,15.60
2023-02-22T15:43:25.713Z,15.50
2023-02-22T15:45:53.758Z,15.50
2023-02-22T15:48:22.204Z,15.20
2023-02-22T15:51:17.826Z,15.10
2023-02-22T15:53:52.089Z,15.10
2023-02-22T15:56:26.988Z,15.00
2023-02-22T15:59:02.091Z,14.90
2023-02-22T16:01:30.666Z,14.80
2023-02-22T16:04:00.829Z,14.80
2023-02-22T16:06:39.486Z,14.70
2023-02-22T16:09:10.177Z,14.60
2023-02-22T16:11:44.381Z,14.50
2023-02-22T16:14:36.316Z,14.40
2023-02-22T16:17:26.462Z,14.40
2023-02-22T16:19:54.639Z,14.30
2023-02-22T16:22:36.736Z,14.20
2023-02-22T16:25:26.129Z,14.10
2023-02-22T16:28:04.722Z,14.10
2023-02-22T16:30:40.554Z,14.00
2023-02-22T16:33:14.753Z,13.90
2023-02-22T16:35:52.743Z,13.80
2023-02-22T16:38:22.239Z,13.80
2023-02-22T16:40:53.528Z,13.70
2023-02-22T16:43:22.499Z,13.70
2023-02-22T16:45:50.462Z,13.50
2023-02-22T16:48:21.964Z,13.50
2023-02-22T16:50:51.479Z,13.40
2023-02-22T16:53:22.157Z,13.30
2023-02-22T16:55:51.749Z,13.20
2023-02-22T16:58:20.332Z,13.10
2023-02-22T17:00:48.274Z,13.10
2023-02-22T17:03:18.580Z,12.80
2023-02-22T17:05:46.529Z,12.70
2023-02-22T17:08:14.452Z,12.70
2023-02-22T17:10:42.429Z,12.60
2023-02-22T17:13:22.779Z,12.40
2023-02-22T17:15:53.029Z,12.20
2023-02-22T17:18:24.416Z,12.20
2023-02-22T17:20:53.437Z,12.20
2023-02-22T17:23:22.722Z,12.30
2023-02-22T17:25:54.698Z,12.10
2023-02-22T17:28:24.803Z,12.00
2023-02-22T17:30:54.045Z,11.90
2023-02-22T17:33:27.675Z,11.70
2023-02-22T17:35:58.820Z,11.70
2023-02-22T17:38:30.044Z,11.50
2023-02-22T17:41:00.063Z,11.50
2023-02-22T17:43:29.027Z,11.40
2023-02-22T17:45:57.833Z,11.40
2023-02-22T17:48:27.457Z,11.30
2023-02-22T17:50:55.323Z,11.30
2023-02-22T17:53:25.632Z,11.40
2023-02-22T17:55:53.798Z,11.30
2023-02-22T17:58:23.373Z,11.30
2023-02-22T18:00:51.708Z,11.20
2023-02-22T18:03:26.248Z,11.10
2023-02-22T18:05:58.643Z,11.10
2023-02-22T18:08:32.095Z,11.10
2023-02-22T18:11:06.995Z,11.10
2023-02-22T18:13:35.108Z,11.10
2023-02-22T18:16:05.978Z,11.00
2023-02-22T18:18:34.205Z,10.90
2023-02-22T18:21:02.060Z,10.80
2023-02-22T18:23:31.991Z,10.70
2023-02-22T18:26:10.851Z,10.70
2023-02-22T18:28:40.287Z,10.70
2023-02-22T18:31:17.141Z,10.70
2023-02-22T18:33:47.580Z,10.70
2023-02-22T18:36:18.164Z,10.70
2023-02-22T18:38:46.151Z,10.70
2023-02-22T18:41:17.134Z,10.60
2023-02-22T18:43:45.295Z,10.50
2023-02-22T18:46:19.193Z,10.50
2023-02-22T18:49:01.702Z,10.50
2023-02-22T18:51:30.101Z,10.50
2023-02-22T18:54:02.676Z,10.50
2023-02-22T18:56:31.283Z,10.50
2023-02-22T18:59:01.813Z,10.30
2023-02-22T19:01:30.437Z,10.20
2023-02-22T19:03:58.760Z,10.20
2023-02-22T19:06:26.662Z,10.10
2023-02-22T19:08:54.628Z,10.10
2023-02-22T19:11:25.010Z,10.00
2023-02-22T19:13:55.251Z,9.90
2023-02-22T19:16:24.937Z,9.90
2023-02-22T19:18:58.025Z,9.80
2023-02-22T19:21:28.102Z,9.70
2023-02-22T19:24:01.352Z,9.70
2023-02-22T19:26:30.172Z,9.70
2023-02-22T19:28:59.894Z,9.60
2023-02-22T19:31:32.214Z,9.60
2023-02-22T19:34:06.419Z,9.50
2023-02-22T19:36:34.413Z,9.40
2023-02-22T19:39:08.762Z,9.40
2023-02-22T19:41:39.904Z,9.50
2023-02-22T19:44:08.676Z,9.60
2023-02-22T19:46:38.261Z,9.60
2023-02-22T19:49:07.026Z,9.70
2023-02-22T19:51:35.514Z,9.70
2023-02-22T19:54:06.486Z,9.70
2023-02-22T19:56:36.342Z,9.70
2023-02-22T19:59:18.000Z,9.70
2023-02-22T20:01:45.925Z,9.60
2023-02-22T20:04:19.151Z,9.60
2023-02-22T20:06:47.943Z,9.60
2023-02-22T20:09:21.568Z,9.60
2023-02-22T20:11:50.434Z,9.60
2023-02-22T20:14:21.112Z,9.60
2023-02-22T20:16:49.102Z,9.50
2023-02-22T20:19:17.183Z,9.50
2023-02-22T20:21:45.395Z,9.50
2023-02-22T20:24:16.158Z,9.30
2023-02-22T20:26:44.434Z,9.20
2023-02-22T20:29:13.231Z,9.10
2023-02-22T20:31:45.331Z,9.10
2023-02-22T20:34:13.558Z,9.10
2023-02-22T20:36:44.234Z,9.00
2023-02-22T20:39:15.214Z,9.00
2023-02-22T20:41:45.578Z,9.00
2023-02-22T20:44:16.047Z,9.10
2023-02-22T20:46:45.166Z,9.10
2023-02-22T20:49:18.156Z,9.00
2023-02-22T20:51:47.548Z,9.10
2023-02-22T20:54:16.306Z,9.20
2023-02-22T20:56:46.764Z,9.20
2023-02-22T20:59:17.254Z,9.30
2023-02-22T21:01:45.378Z,9.30
2023-02-22T21:04:14.429Z,9.30
2023-02-22T21:06:43.007Z,9.20
2023-02-22T21:09:17.104Z,9.20
2023-02-22T21:11:46.411Z,9.20
2023-02-22T21:14:19.549Z,9.10
2023-02-22T21:16:49.436Z,9.00
2023-02-22T21:19:29.074Z,9.00
2023-02-22T21:22:03.331Z,9.10
2023-02-22T21:24:31.469Z,9.00
2023-02-22T21:27:02.090Z,8.80
2023-02-22T21:29:30.544Z,8.80
2023-02-22T21:31:58.608Z,8.80
2023-02-22T21:34:26.963Z,8.90
2023-02-22T21:36:55.182Z,8.80
2023-02-22T21:39:23.704Z,8.80
2023-02-22T21:41:52.995Z,8.70
2023-02-22T21:44:21.879Z,8.60
2023-02-22T21:46:50.829Z,8.40
2023-02-22T21:49:20.005Z,8.40
2023-02-22T21:51:47.976Z,8.40
2023-02-22T21:54:16.980Z,8.50
2023-02-22T21:56:45.791Z,8.50
2023-02-22T21:59:21.130Z,8.50
2023-02-22T22:01:56.713Z,8.50
2023-02-22T22:04:30.180Z,8.60
2023-02-22T22:07:00.231Z,8.60
2023-02-22T22:09:33.693Z,8.60
2023-02-22T22:12:05.937Z,8.60
2023-02-22T22:14:35.465Z,8.60
2023-02-22T22:17:06.589Z,8.70
2023-02-22T22:19:42.763Z,8.70
2023-02-22T22:22:11.177Z,8.70
2023-02-22T22:24:41.556Z,8.80
2023-02-22T22:27:13.328Z,8.70
2023-02-22T22:29:41.364Z,8.80
2023-02-22T22:32:10.046Z,8.80
2023-02-22T22:34:38.907Z,8.80
2023-02-22T22:37:06.870Z,8.80
2023-02-22T22:39:34.866Z,8.80
2023-02-22T22:42:02.959Z,8.70
2023-02-22T22:44:33.622Z,8.80
2023-02-22T22:47:02.249Z,8.70
2023-02-22T22:49:32.307Z,8.60
2023-02-22T22:52:00.283Z,8.50
2023-02-22T22:54:28.186Z,8.50
2023-02-22T22:56:56.125Z,8.50
2023-02-22T22:59:24.015Z,8.50
2023-02-22T23:01:53.370Z,8.50
2023-02-22T23:04:22.573Z,8.40
2023-02-22T23:06:51.966Z,8.50
2023-02-22T23:09:25.316Z,8.50
2023-02-22T23:11:54.901Z,8.50
2023-02-22T23:14:32.197Z,8.60
2023-02-22T23:17:04.304Z,8.60
2023-02-22T23:19:37.247Z,8.60
2023-02-22T23:22:09.463Z,8.60
2023-02-22T23:24:38.351Z,8.50
2023-02-22T23:27:08.264Z,8.40
2023-02-22T23:29:39.620Z,8.40
2023-02-22T23:32:08.272Z,8.40
2023-02-22T23:34:37.496Z,8.40
2023-02-22T23:37:11.111Z,8.40
2023-02-22T23:39:39.556Z,8.30
2023-02-22T23:42:09.943Z,8.20
2023-02-22T23:44:37.937Z,8.10
2023-02-22T23:47:05.876Z,8.00
2023-02-22T23:49:36.928Z,7.90
2023-02-22T23:52:09.415Z,8.00
2023-02-22T23:54:41.327Z,8.10
2023-02-22T23:57:09.852Z,8.10
2023-02-22T23:59:41.448Z,8.10
